KHFD/HFD METAR and TAF weather

Enter ICAO airport designator
Station Type Date Time Source
KHFD METAR 2022/11/30 10:53 UTC NOAA

KHFD 301053Z 00000KT 10SM OVC032 01/M02 A3018 RMK AO2 SLP219 T00111022


Station Type Date Time Source
KHFD Decoded METAR 2022/11/30 10:53 UTC NOAA

HARTFORD-BRAINARD AIRPORT, CT, United States (KHFD) 41-44N 072-39W 4M
Nov 30, 2022 - 05:53 AM EST / 2022.11.30 1053 UTC
Wind: Calm:0
Visibility: 10 mile(s):0
Sky conditions: overcast
Temperature: 34.0 F (1.1 C)
Dew Point: 28.0 F (-2.2 C)
Relative Humidity: 78%
Pressure (altimeter): 30.18 in. Hg (1022 hPa)
ob: KHFD 301053Z 00000KT 10SM OVC032 01/M02 A3018 RMK AO2 SLP219 T00111022
cycle: 11

Station Type Date Time Source
KHFD TAF UTC NOAA

Error!

Example: see airport list